• Join FlightAware (Why Join?)
  • Login
  • US Flag 
09:44AM EST


 

Airport Tracker/Info


-or-


 

Live Flight TrackerFlight Track Log ✈ AWE85 ✈ 16-Jun-2013 ✈ KPHX - KBWI

Flight Track Log - Related Links

Times and Time Zones

All times are in EDT time to prevent confusion due to time zone crossing. See the AWE85 flight status page for this flight to view local times or setup timezone preferences in your user account.

Time Position Orientation Groundspeed Altitude Reporting Facility
EDT Latitude Longitude Course Direction KTS MPH feet Rate Location/Type
06:18PM 33.4333 -112.0333 67° East 182 209 1,900  Level Phoenix TRACON
06:19PM 33.4333 -112.0667 270° West 170 196 2,800 1,200 Climbing Phoenix TRACON
06:20PM 33.4333 -112.1333 270° West 222 255 3,700 1,440 Climbing Phoenix TRACON
06:21PM 33.5777 -111.5989 69° East  Level FlightAware Approximate
06:21PM 33.4483 -112.1875 288° West 235 270 5,600  Level Albuquerque Center
06:22PM 33.6214 -111.4619 69° East  Level FlightAware Approximate
06:22PM 33.5178 -112.1839 North 261 300 7,800  Level Albuquerque Center
06:23PM 33.6650 -111.3247 69° East  Level FlightAware Approximate
06:23PM 33.5914 -112.1614 14° North 273 314 10,000  Level Albuquerque Center
06:24PM 33.7108 -111.1885 67° East  Level FlightAware Approximate
06:24PM 33.6422 -112.0892 50° Northeast 323 372 11,500  Level Albuquerque Center
06:25PM 33.6428 -111.9728 90° East 352 405 12,900 1,800 Climbing Albuquerque Center
06:26PM 33.6517 -111.8478 85° East 377 434 15,300 2,100 Climbing Albuquerque Center
06:27PM 33.6622 -111.6933 85° East 393 452 17,300 1,740 Climbing Albuquerque Center
06:28PM 33.6703 -111.5586 86° East 406 467 18,900 1,560 Climbing Albuquerque Center
06:29PM 33.6786 -111.4178 86° East 423 487 20,500 1,320 Climbing Albuquerque Center
06:30PM 33.6883 -111.2706 85° East 443 510 21,700 1,200 Climbing Albuquerque Center
06:31PM 33.7375 -111.1297 67° East 458 527 23,000 1,260 Climbing Albuquerque Center
06:32PM 33.7983 -110.9564 67° East 470 541 24,400 1,320 Climbing Albuquerque Center
06:33PM 33.8514 -110.8072 67° East 481 554 25,800 1,200 Climbing Albuquerque Center
06:34PM 33.9050 -110.6564 67° East 488 562 26,900 1,020 Climbing Albuquerque Center
06:35PM 33.9572 -110.5025 68° East 495 570 28,000 1,020 Climbing Albuquerque Center
06:36PM 34.0194 -110.3300 66° East 508 585 29,100 1,020 Climbing Albuquerque Center
06:37PM 34.0739 -110.1686 68° East 518 596 30,200 1,260 Climbing Albuquerque Center
06:38PM 34.1328 -110.0008 67° East 518 596 31,700 1,200 Climbing Albuquerque Center
06:39PM 34.1850 -109.8486 67° East 516 594 32,800 1,080 Climbing Albuquerque Center
06:40PM 34.2453 -109.6700 68° East 515 593 34,000 1,020 Climbing Albuquerque Center
06:41PM 34.2978 -109.5183 67° East 513 590 34,900 480 Climbing Albuquerque Center
06:42PM 34.3581 -109.3392 68° East 514 592 35,000  Climbing Albuquerque Center
06:43PM 34.4097 -109.1872 68° East 513 590 35,000  Level Albuquerque Center
06:44PM 34.4558 -109.0314 70° East 514 592 35,000  Level Albuquerque Center
06:45PM 34.5200 -108.8550 66° East 514 592 35,100  Climbing Albuquerque Center
06:46PM 34.5864 -108.7122 61° Northeast 511 588 35,000 -60 Descending Albuquerque Center
06:47PM 34.6622 -108.5511 60° Northeast 500 575 35,000  Level Albuquerque Center
06:48PM 34.7231 -108.4197 61° Northeast 498 573 35,000 -60 Level Albuquerque Center
06:49PM 34.7922 -108.2719 60° Northeast 501 577 34,900  Descending Albuquerque Center
06:51PM 34.8689 -108.1050 61° Northeast 501 577 35,000  Climbing Albuquerque Center
06:52PM 34.9344 -107.9628 61° Northeast 502 578 35,000  Level Albuquerque Center
06:53PM 35.0106 -107.7956 61° Northeast 502 578 35,000  Level Albuquerque Center
06:54PM 35.0847 -107.6494 58° Northeast 506 582 35,000  Level Albuquerque Center
06:55PM 35.1775 -107.5078 51° Northeast 505 581 35,000  Level Albuquerque Center
06:56PM 35.2625 -107.3811 51° Northeast 505 581 35,000  Level Albuquerque Center
06:57PM 35.3508 -107.2453 51° Northeast 505 581 35,000  Level Albuquerque Center
06:58PM 35.4403 -107.1097 51° Northeast 505 581 35,000  Level Albuquerque Center
06:59PM 35.5278 -106.9736 52° Northeast 504 580 35,000  Level Albuquerque Center
07:00PM 35.6142 -106.8400 51° Northeast 500 575 35,000  Level Albuquerque Center
07:01PM 35.7061 -106.6986 51° Northeast 497 572 35,000  Level Albuquerque Center
07:02PM 35.8022 -106.5517 51° Northeast 495 570 35,000  Level Albuquerque Center
07:03PM 35.8858 -106.4261 51° Northeast 495 570 35,000  Level Albuquerque Center
07:04PM 35.9628 -106.3100 51° Northeast 496 571 35,000  Level Albuquerque Center
07:05PM 36.0653 -106.1475 52° Northeast 498 573 35,000  Level Albuquerque Center
07:06PM 36.1525 -106.0125 51° Northeast 501 577 35,000  Level Albuquerque Center
07:07PM 36.2417 -105.8817 50° Northeast 498 573 35,000  Level Albuquerque Center
07:08PM 36.3253 -105.7419 53° Northeast 502 578 35,000  Level Albuquerque Center
07:09PM 36.4119 -105.6083 51° Northeast 500 575 35,000  Level Albuquerque Center
07:10PM 36.4908 -105.4547 57° Northeast 501 577 35,000  Level Albuquerque Center
07:11PM 36.5539 -105.3072 62° Northeast 506 582 35,000  Level Albuquerque Center
07:12PM 36.6247 -105.1356 63° Northeast 503 579 35,000  Level Albuquerque Center
07:13PM 36.6897 -104.9819 62° Northeast 499 574 35,000  Level Albuquerque Center
07:14PM 36.7261 -104.8906 64° Northeast 500 575 35,000  Level Albuquerque Center
07:15PM 36.7981 -104.7211 62° Northeast 496 571 35,000  Level Albuquerque Center
07:16PM 36.8572 -104.5750 63° Northeast 495 570 35,000  Level Albuquerque Center
07:16PM 36.8942 -104.4758 65° Northeast 494 568 35,000  Level Denver Center
07:17PM 36.9125 -104.4269 65° Northeast 493 567 35,000  Level Denver Center
07:17PM 36.9453 -104.3253 68° East 494 568 35,000  Level Denver Center
07:18PM 36.9703 -104.2500 67° East 493 567 35,000  Level Albuquerque Center
07:19PM 37.0208 -104.0969 67° East 497 572 35,000  Level Albuquerque Center
07:20PM 37.0800 -103.9208 67° East 496 571 35,100  Climbing Albuquerque Center
07:21PM 37.1247 -103.7667 70° East 495 570 35,000 -120 Descending Albuquerque Center
07:21PM 37.1442 -103.6881 73° East 498 573 35,000  Level Denver Center
07:22PM 37.1739 -103.5853 70° East 496 571 35,000  Level Albuquerque Center
07:23PM 37.2167 -103.4294 71° East 497 572 35,000 -60 Level Albuquerque Center
07:24PM 37.2667 -103.2475 71° East 496 571 34,900  Descending Albuquerque Center
07:25PM 37.3092 -103.0936 71° East 492 566 35,000  Climbing Albuquerque Center
07:26PM 37.3467 -102.9456 72° East 470 541 35,000  Level Albuquerque Center
07:27PM 37.3958 -102.7689 71° East 478 550 35,000  Level Albuquerque Center
07:28PM 37.4364 -102.6164 71° East 482 555 35,000  Level Albuquerque Center
07:28PM 37.4547 -102.5436 72° East 481 554 35,000  Level Kansas City Center
07:29PM 37.4933 -102.3925 72° East 477 549 35,000  Level Kansas City Center
07:31PM 37.5403 -102.2164 71° East 476 548 35,000  Level Kansas City Center
07:32PM 37.5792 -102.0675 72° East 469 540 35,000  Level Kansas City Center
07:33PM 37.6236 -101.8919 72° East 470 541 35,000  Level Kansas City Center
07:34PM 37.6628 -101.7414 72° East 471 542 35,000  Level Kansas City Center
07:35PM 37.7086 -101.5636 72° East 476 548 35,000  Level Kansas City Center
07:36PM 37.7486 -101.4069 72° East 483 556 35,100  Climbing Kansas City Center
07:37PM 37.7944 -101.2236 72° East 488 562 35,000 -60 Descending Kansas City Center
07:38PM 37.8347 -101.0661 72° East 488 562 35,000  Level Kansas City Center
07:39PM 37.8756 -100.9075 72° East 488 562 35,000  Level Kansas City Center
07:40PM 37.9200 -100.7242 73° East 484 557 35,000  Level Kansas City Center
07:41PM 37.9514 -100.5703 75° East 473 544 35,000 60 Level Kansas City Center
07:42PM 37.9847 -100.4111 75° East 483 556 35,200 780 Climbing Kansas City Center
07:43PM 38.0222 -100.2236 76° East 489 563 36,600 840 Climbing Kansas City Center
07:44PM 38.0547 -100.0633 76° East 490 564 37,000 180 Climbing Kansas City Center
07:45PM 38.0933 -99.8714 76° East 499 574 37,000  Level Kansas City Center
07:46PM 38.1267 -99.7061 76° East 503 579 37,000  Level Kansas City Center
07:47PM 38.1653 -99.5111 76° East 508 585 37,100  Climbing Kansas City Center
07:48PM 38.1986 -99.3381 76° East 512 589 37,100  Level Kansas City Center
07:49PM 38.2331 -99.1633 76° East 510 587 37,100 -60 Level Kansas City Center
07:50PM 38.2683 -98.9886 76° East 507 583 37,000 -60 Descending Kansas City Center
07:51PM 38.3017 -98.8153 76° East 504 580 37,000  Level Kansas City Center
07:52PM 38.3347 -98.6428 76° East 499 574 37,000  Level Kansas City Center
07:53PM 38.3672 -98.4722 76° East 493 567 37,000  Level Kansas City Center
07:54PM 38.3992 -98.3006 77° East 493 567 37,000  Level Kansas City Center
07:55PM 38.4322 -98.1275 76° East 498 573 37,000  Level Kansas City Center
07:56PM 38.4708 -97.9189 77° East 499 574 37,000  Level Kansas City Center
07:57PM 38.5025 -97.7439 77° East 499 574 37,000  Level Kansas City Center
07:58PM 38.5336 -97.5689 77° East 501 577 37,000  Level Kansas City Center
07:59PM 38.5650 -97.3936 77° East 503 579 37,000  Level Kansas City Center
08:00PM 38.5964 -97.2178 77° East 503 579 37,000  Level Kansas City Center
08:01PM 38.6261 -97.0431 78° East 501 577 37,000  Level Kansas City Center
08:02PM 38.6575 -96.8661 77° East 506 582 37,000  Level Kansas City Center
08:03PM 38.6919 -96.6606 78° East 506 582 37,000  Level Kansas City Center
08:05PM 38.7203 -96.4911 78° East 509 586 37,000  Level Kansas City Center
08:06PM 38.7497 -96.3206 77° East 512 589 37,000  Level Kansas City Center
08:07PM 38.7825 -96.1222 78° East 510 587 37,000  Level Kansas City Center
08:08PM 38.8097 -95.9511 78° East 511 588 37,000  Level Kansas City Center
08:09PM 38.8425 -95.7508 78° East 515 593 37,000  Level Kansas City Center
08:10PM 38.8711 -95.5800 78° East 514 592 37,000  Level Kansas City Center
08:11PM 38.9028 -95.3811 78° East 514 592 37,000  Level Kansas City Center
08:12PM 38.9294 -95.2114 79° East 512 589 37,000  Level Kansas City Center
08:13PM 38.9606 -95.0128 79° East 514 592 37,000  Level Kansas City Center
08:14PM 38.9869 -94.8419 79° East 515 593 37,000  Level Kansas City Center
08:15PM 39.0181 -94.6408 79° East 515 593 37,000  Level Kansas City Center
08:16PM 39.0447 -94.4686 79° East 516 594 37,000  Level Kansas City Center
08:17PM 39.0739 -94.2667 79° East 515 593 37,000  Level Kansas City Center
08:18PM 39.1003 -94.0919 79° East 520 598 37,000  Level Kansas City Center
08:19PM 39.1258 -93.8856 81° East 523 602 37,000  Level Kansas City Center
08:20PM 39.1472 -93.7081 81° East 524 603 37,000  Level Kansas City Center
08:21PM 39.1692 -93.5306 81° East 525 604 37,000  Level Kansas City Center
08:22PM 39.1961 -93.3211 81° East 527 606 37,000  Level Kansas City Center
08:23PM 39.2169 -93.1367 82° East 529 609 37,000  Level Kansas City Center
08:24PM 39.2389 -92.9528 81° East 526 605 37,000  Level Kansas City Center
08:25PM 39.2592 -92.7703 82° East 524 603 37,000  Level Kansas City Center
08:26PM 39.2847 -92.5503 81° East 523 602 37,000  Level Kansas City Center
08:27PM 39.3047 -92.3692 82° East 520 598 37,000  Level Kansas City Center
08:28PM 39.3253 -92.1858 82° East 520 598 37,000  Level Kansas City Center
08:29PM 39.3461 -92.0017 82° East 522 601 37,000  Level Kansas City Center
08:30PM 39.3656 -91.8181 82° East 524 603 37,000  Level Kansas City Center
08:31PM 39.3861 -91.6272 82° East 520 598 37,000  Level Kansas City Center
08:32PM 39.4214 -91.4478 76° East 518 596 37,000  Level Kansas City Center
08:33PM 39.4711 -91.2319 73° East 518 596 37,000  Level Kansas City Center
08:34PM 39.5122 -91.0531 73° East 518 596 37,000  Level Kansas City Center
08:35PM 39.5544 -90.8719 73° East 522 601 37,000  Level Kansas City Center
08:36PM 39.5967 -90.6928 73° East 520 598 37,000  Level Kansas City Center
08:37PM 39.6381 -90.5125 73° East 521 600 37,000  Level Kansas City Center
08:39PM 39.6817 -90.3331 72° East 520 598 37,000  Level Kansas City Center
08:40PM 39.7242 -90.1519 73° East 523 602 37,000  Level Kansas City Center
08:41PM 39.7453 -89.9561 82° East 524 603 37,000  Level Kansas City Center
08:42PM 39.7514 -89.7681 88° East 525 604 37,000  Level Kansas City Center
08:43PM 39.7575 -89.5817 87° East 522 601 37,000  Level Kansas City Center
08:44PM 39.7644 -89.3556 88° East 524 603 37,000  Level Kansas City Center
08:45PM 39.7692 -89.1669 88° East 525 604 37,000  Level Kansas City Center
08:46PM 39.7744 -88.9806 88° East 521 600 37,000  Level Kansas City Center
08:47PM 39.7794 -88.7939 88° East 519 597 37,000  Level Kansas City Center
08:48PM 39.7839 -88.6072 88° East 519 597 37,000  Level Kansas City Center
08:49PM 39.7897 -88.4211 88° East 517 595 37,000  Level Kansas City Center
08:50PM 39.7936 -88.2006 89° East 520 598 37,000  Level Kansas City Center
08:51PM 39.7947 -88.0619 89° East 519 597 37,000  Level Indianapolis Center
08:52PM 39.7983 -87.8747 89° East 519 597 37,000  Level Indianapolis Center
08:53PM 39.8011 -87.6881 89° East 517 595 37,000  Level Indianapolis Center
08:54PM 39.8039 -87.5022 89° East 515 593 37,000  Level Indianapolis Center
08:55PM 39.8064 -87.3172 89° East 514 592 37,000  Level Indianapolis Center
08:56PM 39.8089 -87.1333 89° East 510 587 37,000  Level Indianapolis Center
08:57PM 39.8103 -86.9486 89° East 511 588 37,000  Level Indianapolis Center
08:58PM 39.8125 -86.7633 89° East 513 590 37,000  Level Indianapolis Center
08:59PM 39.8144 -86.5406 89° East 513 590 37,000  Level Indianapolis Center
09:00PM 39.8164 -86.3722 89° East 512 589 37,000  Level Indianapolis Center
09:01PM 39.8294 -86.1550 85° East 520 598 37,000  Level Indianapolis Center
09:02PM 39.8397 -85.9678 86° East 516 594 37,000  Level Indianapolis Center
09:03PM 39.8500 -85.7822 86° East 515 593 37,000  Level Indianapolis Center
09:04PM 39.8600 -85.5947 86° East 518 596 37,000  Level Indianapolis Center
09:05PM 39.8694 -85.4100 86° East 514 592 37,000  Level Indianapolis Center
09:06PM 39.8792 -85.2250 86° East 514 592 37,000  Level Indianapolis Center
09:07PM 39.8883 -85.0397 86° East 514 592 37,000 -60 Level Indianapolis Center
09:08PM 39.8981 -84.8361 86° East 515 593 36,900  Descending Indianapolis Center
09:09PM 39.9067 -84.6486 87° East 514 592 37,000  Climbing Indianapolis Center
09:10PM 39.9158 -84.4606 86° East 515 593 37,000  Level Indianapolis Center
09:11PM 39.9233 -84.2722 87° East 516 594 37,000  Level Indianapolis Center
09:12PM 39.9306 -84.0831 87° East 518 596 37,000  Level Indianapolis Center
09:13PM 39.9383 -83.8933 87° East 519 597 37,000  Level Indianapolis Center
09:14PM 39.9456 -83.7022 87° East 521 600 37,000  Level Indianapolis Center
09:15PM 39.9536 -83.5128 87° East 523 602 37,000  Level Indianapolis Center
09:16PM 39.9606 -83.3094 87° East 527 606 37,000 -60 Level Indianapolis Center
09:17PM 39.9658 -83.1172 88° East 525 604 36,900 -840 Descending Indianapolis Center
09:18PM 39.9653 -82.9261 90° East 522 601 35,300 -1,020 Descending Indianapolis Center
09:19PM 39.9594 -82.7364 92° East 520 598 34,900 -180 Descending Indianapolis Center
09:20PM 39.9544 -82.5472 92° East 518 596 35,000  Climbing Indianapolis Center
09:21PM 39.9492 -82.3581 92° East 518 596 35,000  Level Indianapolis Center
09:22PM 39.9439 -82.1681 92° East 521 600 35,000 -180 Level Indianapolis Center
09:23PM 39.9378 -81.9450 92° East 522 601 34,700 -1,020 Descending Indianapolis Center
09:24PM 39.9306 -81.7558 93° East 520 598 33,000 -900 Descending Indianapolis Center
09:25PM 39.9244 -81.5669 92° East 519 597 32,900  Descending Indianapolis Center
09:26PM 39.9178 -81.3975 93° East 516 594 33,000  Climbing Indianapolis Center
09:27PM 39.9114 -81.2125 93° East 511 588 33,000  Level Indianapolis Center
09:28PM 39.9042 -81.0297 93° East 506 582 33,000  Level Indianapolis Center
09:29PM 39.8972 -80.8489 93° East 500 575 33,000  Level Indianapolis Center
09:30PM 39.8875 -80.6297 93° East 502 578 33,000  Level Indianapolis Center
09:31PM 39.8794 -80.4469 93° East 504 580 33,000  Level Indianapolis Center
09:33PM 39.8703 -80.2650 94° East 503 579 33,000  Level Indianapolis Center
09:34PM 39.8639 -80.0747 92° East 497 572 33,000  Level Cleveland Center
09:35PM 39.8358 -79.9017 102° East 497 572 33,000 -900 Level Cleveland Center
09:37PM 39.7611 -79.5514 105° East 497 572 30,400 -1,560 Descending Washington Center
09:38PM 39.7250 -79.3822 105° East 497 572 28,400 -1,920 Descending Washington Center
09:39PM 39.6906 -79.2158 105° East 490 564 26,500 -1,860 Descending Washington Center
09:40PM 39.6556 -79.0578 106° East 475 547 24,700 -2,160 Descending Washington Center
09:41PM 39.6167 -78.8808 106° East 460 529 22,300 -2,160 Descending Washington Center
09:42PM 39.5833 -78.7283 106° East 460 529 20,500 -1,560 Descending Washington Center
09:43PM 39.5517 -78.5844 106° East 441 507 19,200 -1,320 Descending Washington Center
09:44PM 39.5217 -78.4461 106° East 418 481 17,900 -1,260 Descending Washington Center
09:45PM 39.4892 -78.3103 107° East 399 459 16,700 -1,200 Descending Washington Center
09:46PM 39.4589 -78.1775 106° East 388 447 15,500 -900 Descending Washington Center
09:47PM 39.4322 -78.0500 105° East 377 434 15,000 -660 Descending Washington Center
09:48PM 39.4267 -77.9183 93° East 371 427 14,300 -780 Descending Washington Center
09:49PM 39.4333 -77.7869 86° East 365 420 13,500 -780 Descending Washington Center
09:50PM 39.4356 -77.6606 89° East 365 420 12,800 -780 Descending Washington Center
09:51PM 39.4397 -77.5317 88° East 360 414 12,000 -840 Descending Washington Center
09:52PM 39.4417 -77.4056 89° East 355 409 11,200 -720 Descending Washington Center
09:52PM 39.4500 -77.3667 74° East 335 386 11,100 -180 Descending Potomac TRACON
09:53PM 39.4667 -77.2333 81° East 351 404 11,000 -180 Descending Potomac TRACON
09:54PM 39.4500 -77.1167 100° East 349 402 10,800 -600 Descending Potomac TRACON
09:55PM 39.4500 -77.0000 90° East 316 364 9,900 -1,200 Descending Potomac TRACON
09:56PM 39.4333 -76.9000 102° East 306 352 8,500 -1,620 Descending Potomac TRACON
09:57PM 39.4000 -76.7833 110° East 308 354 6,600 -1,560 Descending Potomac TRACON
09:58PM 39.3333 -76.7000 136° Southeast 294 338 5,200 -840 Descending Potomac TRACON
09:59PM 39.2833 -76.6333 134° Southeast 273 314 5,000 -480 Descending Potomac TRACON
10:00PM 39.2333 -76.5833 142° Southeast 248 285 4,400 -840 Descending Potomac TRACON
10:01PM 39.1833 -76.5667 166° South 220 253 3,400 -960 Descending Potomac TRACON